sensor_id;sensor_type;location;lat;lon;timestamp;pressure;altitude;pressure_sealevel;temperature;humidity
39954;BME280;25631;51.516;-0.470;2023-02-19T00:00:56;102000.18;;;7.59;42.57
39954;BME280;25631;51.516;-0.470;2023-02-19T00:03:33;101996.19;;;7.51;42.59
39954;BME280;25631;51.516;-0.470;2023-02-19T00:06:10;101994.94;;;7.76;42.60
39954;BME280;25631;51.516;-0.470;2023-02-19T00:08:47;101998.72;;;7.98;42.81
39954;BME280;25631;51.516;-0.470;2023-02-19T00:11:26;102005.62;;;7.53;42.88
39954;BME280;25631;51.516;-0.470;2023-02-19T00:14:03;102007.68;;;7.90;42.86
39954;BME280;25631;51.516;-0.470;2023-02-19T00:16:40;102013.42;;;7.73;42.75
39954;BME280;25631;51.516;-0.470;2023-02-19T00:19:18;102013.94;;;7.85;42.66
39954;BME280;25631;51.516;-0.470;2023-02-19T00:21:55;102017.22;;;7.87;42.67
39954;BME280;25631;51.516;-0.470;2023-02-19T00:24:32;102016.12;;;7.90;42.89
39954;BME280;25631;51.516;-0.470;2023-02-19T00:27:09;102022.65;;;7.72;43.08
39954;BME280;25631;51.516;-0.470;2023-02-19T00:29:45;102030.94;;;8.13;42.97
39954;BME280;25631;51.516;-0.470;2023-02-19T00:32:21;102032.84;;;7.41;43.15
39954;BME280;25631;51.516;-0.470;2023-02-19T00:34:58;102035.72;;;7.63;43.29
39954;BME280;25631;51.516;-0.470;2023-02-19T00:37:34;102035.47;;;7.82;43.20
39954;BME280;25631;51.516;-0.470;2023-02-19T00:40:11;102041.36;;;8.18;43.47
39954;BME280;25631;51.516;-0.470;2023-02-19T00:42:48;102043.08;;;7.99;43.27
39954;BME280;25631;51.516;-0.470;2023-02-19T00:45:24;102041.96;;;7.80;43.35
39954;BME280;25631;51.516;-0.470;2023-02-19T00:48:01;102046.42;;;7.68;43.33
39954;BME280;25631;51.516;-0.470;2023-02-19T00:50:38;102051.89;;;7.66;43.30
39954;BME280;25631;51.516;-0.470;2023-02-19T00:53:14;102045.64;;;7.62;43.20
39954;BME280;25631;51.516;-0.470;2023-02-19T00:55:51;102054.51;;;7.53;43.28
39954;BME280;25631;51.516;-0.470;2023-02-19T00:58:27;102051.38;;;7.42;43.53
39954;BME280;25631;51.516;-0.470;2023-02-19T01:01:05;102054.54;;;7.43;43.58
39954;BME280;25631;51.516;-0.470;2023-02-19T01:03:42;102062.56;;;7.38;43.30
39954;BME280;25631;51.516;-0.470;2023-02-19T01:06:20;102060.94;;;7.73;43.30
39954;BME280;25631;51.516;-0.470;2023-02-19T01:08:57;102064.35;;;7.68;43.28
39954;BME280;25631;51.516;-0.470;2023-02-19T01:11:34;102070.04;;;7.52;43.27
39954;BME280;25631;51.516;-0.470;2023-02-19T01:14:10;102073.47;;;7.48;43.27
39954;BME280;25631;51.516;-0.470;2023-02-19T01:16:47;102071.45;;;7.30;43.35
39954;BME280;25631;51.516;-0.470;2023-02-19T01:19:23;102074.13;;;7.44;43.30
39954;BME280;25631;51.516;-0.470;2023-02-19T01:22:00;102074.46;;;7.42;43.16
39954;BME280;25631;51.516;-0.470;2023-02-19T01:24:37;102076.23;;;7.36;43.25
39954;BME280;25631;51.516;-0.470;2023-02-19T01:27:14;102073.48;;;7.43;43.33
39954;BME280;25631;51.516;-0.470;2023-02-19T01:29:50;102072.91;;;7.37;43.37
39954;BME280;25631;51.516;-0.470;2023-02-19T01:32:27;102073.72;;;7.33;43.33
39954;BME280;25631;51.516;-0.470;2023-02-19T01:35:04;102073.18;;;7.42;43.18
39954;BME280;25631;51.516;-0.470;2023-02-19T01:37:40;102078.85;;;7.40;43.16
39954;BME280;25631;51.516;-0.470;2023-02-19T01:40:17;102078.57;;;7.45;43.07
39954;BME280;25631;51.516;-0.470;2023-02-19T01:42:54;102085.63;;;7.63;43.07
39954;BME280;25631;51.516;-0.470;2023-02-19T01:45:31;102087.67;;;7.64;43.12
39954;BME280;25631;51.516;-0.470;2023-02-19T01:48:12;102081.07;;;7.41;43.26
39954;BME280;25631;51.516;-0.470;2023-02-19T01:50:54;102083.68;;;7.17;43.18
39954;BME280;25631;51.516;-0.470;2023-02-19T01:53:36;102089.00;;;7.35;43.30
39954;BME280;25631;51.516;-0.470;2023-02-19T01:56:15;102086.27;;;7.45;43.35
39954;BME280;25631;51.516;-0.470;2023-02-19T01:58:53;102091.92;;;7.17;43.41
39954;BME280;25631;51.516;-0.470;2023-02-19T02:01:30;102093.99;;;7.34;43.25
39954;BME280;25631;51.516;-0.470;2023-02-19T02:04:08;102093.14;;;7.34;43.14
39954;BME280;25631;51.516;-0.470;2023-02-19T02:06:48;102092.65;;;7.33;43.10
39954;BME280;25631;51.516;-0.470;2023-02-19T02:09:28;102092.50;;;7.56;42.94
39954;BME280;25631;51.516;-0.470;2023-02-19T02:12:06;102093.28;;;7.49;42.84
39954;BME280;25631;51.516;-0.470;2023-02-19T02:14:45;102095.34;;;7.63;42.75
39954;BME280;25631;51.516;-0.470;2023-02-19T02:17:25;102099.60;;;7.35;42.61
39954;BME280;25631;51.516;-0.470;2023-02-19T02:20:26;102100.90;;;7.40;42.46
39954;BME280;25631;51.516;-0.470;2023-02-19T02:23:09;102110.27;;;7.57;42.36
39954;BME280;25631;51.516;-0.470;2023-02-19T02:26:00;102110.62;;;7.57;42.30
39954;BME280;25631;51.516;-0.470;2023-02-19T02:29:11;102113.61;;;7.34;42.21
39954;BME280;25631;51.516;-0.470;2023-02-19T02:31:58;102112.58;;;7.40;42.08
39954;BME280;25631;51.516;-0.470;2023-02-19T02:34:45;102116.08;;;7.55;41.92
39954;BME280;25631;51.516;-0.470;2023-02-19T02:37:24;102116.72;;;7.34;41.94
39954;BME280;25631;51.516;-0.470;2023-02-19T02:40:07;102119.04;;;7.66;41.91
39954;BME280;25631;51.516;-0.470;2023-02-19T02:42:44;102127.45;;;7.21;42.00
39954;BME280;25631;51.516;-0.470;2023-02-19T02:45:26;102127.30;;;7.41;41.99
39954;BME280;25631;51.516;-0.470;2023-02-19T02:48:09;102127.82;;;7.42;41.92
39954;BME280;25631;51.516;-0.470;2023-02-19T02:50:52;102125.24;;;7.04;41.97
39954;BME280;25631;51.516;-0.470;2023-02-19T02:53:34;102127.39;;;6.92;41.92
39954;BME280;25631;51.516;-0.470;2023-02-19T02:56:15;102130.18;;;6.96;41.98
39954;BME280;25631;51.516;-0.470;2023-02-19T02:58:54;102134.64;;;7.35;41.99
39954;BME280;25631;51.516;-0.470;2023-02-19T03:01:36;102130.01;;;7.13;41.92
39954;BME280;25631;51.516;-0.470;2023-02-19T03:04:18;102130.42;;;7.07;41.77
39954;BME280;25631;51.516;-0.470;2023-02-19T03:06:59;102131.80;;;7.09;41.78
39954;BME280;25631;51.516;-0.470;2023-02-19T03:09:41;102131.82;;;7.08;41.76
39954;BME280;25631;51.516;-0.470;2023-02-19T03:12:18;102133.92;;;7.08;41.85
39954;BME280;25631;51.516;-0.470;2023-02-19T03:14:58;102138.32;;;7.09;41.77
39954;BME280;25631;51.516;-0.470;2023-02-19T03:17:41;102140.60;;;7.26;41.69
39954;BME280;25631;51.516;-0.470;2023-02-19T03:20:22;102136.30;;;7.21;41.61
39954;BME280;25631;51.516;-0.470;2023-02-19T03:23:00;102142.50;;;7.18;41.51
39954;BME280;25631;51.516;-0.470;2023-02-19T03:25:37;102145.84;;;7.19;41.48
39954;BME280;25631;51.516;-0.470;2023-02-19T03:28:16;102151.21;;;7.02;41.53
39954;BME280;25631;51.516;-0.470;2023-02-19T03:30:55;102150.20;;;6.81;41.55
39954;BME280;25631;51.516;-0.470;2023-02-19T03:33:32;102155.04;;;6.84;41.56
39954;BME280;25631;51.516;-0.470;2023-02-19T03:36:12;102155.19;;;6.62;41.66
39954;BME280;25631;51.516;-0.470;2023-02-19T03:38:53;102161.03;;;6.96;41.61
39954;BME280;25631;51.516;-0.470;2023-02-19T03:41:35;102169.18;;;6.97;41.53
39954;BME280;25631;51.516;-0.470;2023-02-19T03:44:21;102181.07;;;6.66;41.39
39954;BME280;25631;51.516;-0.470;2023-02-19T03:47:04;102181.85;;;6.85;41.23
39954;BME280;25631;51.516;-0.470;2023-02-19T03:49:48;102184.24;;;6.75;41.08
39954;BME280;25631;51.516;-0.470;2023-02-19T03:52:33;102187.34;;;7.03;40.88
39954;BME280;25631;51.516;-0.470;2023-02-19T03:55:16;102190.32;;;7.15;40.72
39954;BME280;25631;51.516;-0.470;2023-02-19T03:57:57;102191.58;;;7.12;40.63
39954;BME280;25631;51.516;-0.470;2023-02-19T04:00:41;102194.61;;;6.83;40.59
39954;BME280;25631;51.516;-0.470;2023-02-19T04:03:26;102206.21;;;6.84;40.51
39954;BME280;25631;51.516;-0.470;2023-02-19T04:06:10;102205.06;;;6.77;40.49
39954;BME280;25631;51.516;-0.470;2023-02-19T04:08:52;102205.03;;;6.95;40.51
39954;BME280;25631;51.516;-0.470;2023-02-19T04:11:31;102204.97;;;6.92;40.45
39954;BME280;25631;51.516;-0.470;2023-02-19T04:14:12;102208.87;;;6.80;40.43
39954;BME280;25631;51.516;-0.470;2023-02-19T04:16:52;102211.65;;;6.96;40.38
39954;BME280;25631;51.516;-0.470;2023-02-19T04:19:32;102209.92;;;6.75;40.34
39954;BME280;25631;51.516;-0.470;2023-02-19T04:22:11;102216.51;;;7.09;40.20
39954;BME280;25631;51.516;-0.470;2023-02-19T04:24:51;102232.44;;;7.08;40.04
39954;BME280;25631;51.516;-0.470;2023-02-19T04:27:28;102240.34;;;6.84;40.12
39954;BME280;25631;51.516;-0.470;2023-02-19T04:30:07;102247.64;;;7.04;40.01
39954;BME280;25631;51.516;-0.470;2023-02-19T04:32:44;102246.33;;;6.97;39.99
39954;BME280;25631;51.516;-0.470;2023-02-19T04:35:21;102243.81;;;6.86;39.96
39954;BME280;25631;51.516;-0.470;2023-02-19T04:37:57;102243.26;;;6.85;39.91
39954;BME280;25631;51.516;-0.470;2023-02-19T04:40:34;102247.84;;;7.05;39.95
39954;BME280;25631;51.516;-0.470;2023-02-19T04:43:10;102251.84;;;6.94;40.07
39954;BME280;25631;51.516;-0.470;2023-02-19T04:45:46;102254.29;;;7.07;40.06
39954;BME280;25631;51.516;-0.470;2023-02-19T04:48:23;102260.63;;;6.82;40.03
39954;BME280;25631;51.516;-0.470;2023-02-19T04:51:04;102258.50;;;6.63;40.18
39954;BME280;25631;51.516;-0.470;2023-02-19T04:53:41;102256.57;;;6.68;40.25
39954;BME280;25631;51.516;-0.470;2023-02-19T04:56:18;102247.64;;;6.77;40.35
39954;BME280;25631;51.516;-0.470;2023-02-19T04:58:55;102252.52;;;6.59;40.31
39954;BME280;25631;51.516;-0.470;2023-02-19T05:01:31;102266.12;;;6.63;40.33
39954;BME280;25631;51.516;-0.470;2023-02-19T05:04:08;102267.96;;;7.11;40.21
39954;BME280;25631;51.516;-0.470;2023-02-19T05:06:44;102270.69;;;6.25;40.33
39954;BME280;25631;51.516;-0.470;2023-02-19T05:09:21;102273.47;;;6.74;40.26
39954;BME280;25631;51.516;-0.470;2023-02-19T05:11:57;102265.23;;;6.64;40.42
39954;BME280;25631;51.516;-0.470;2023-02-19T05:14:34;102270.98;;;6.61;40.40
39954;BME280;25631;51.516;-0.470;2023-02-19T05:17:10;102279.35;;;6.39;40.39
39954;BME280;25631;51.516;-0.470;2023-02-19T05:19:47;102284.41;;;6.60;40.41
39954;BME280;25631;51.516;-0.470;2023-02-19T05:22:23;102289.84;;;6.87;40.46
39954;BME280;25631;51.516;-0.470;2023-02-19T05:25:00;102288.60;;;6.79;40.48
39954;BME280;25631;51.516;-0.470;2023-02-19T05:27:36;102291.66;;;6.83;40.48
39954;BME280;25631;51.516;-0.470;2023-02-19T05:30:13;102295.17;;;6.49;40.58
39954;BME280;25631;51.516;-0.470;2023-02-19T05:32:49;102295.22;;;6.40;40.59
39954;BME280;25631;51.516;-0.470;2023-02-19T05:35:26;102288.89;;;7.04;40.46
39954;BME280;25631;51.516;-0.470;2023-02-19T05:38:02;102283.26;;;6.63;40.38
39954;BME280;25631;51.516;-0.470;2023-02-19T05:40:39;102285.98;;;6.77;40.32
39954;BME280;25631;51.516;-0.470;2023-02-19T05:43:16;102288.64;;;7.01;40.21
39954;BME280;25631;51.516;-0.470;2023-02-19T05:45:57;102289.44;;;7.04;40.17
39954;BME280;25631;51.516;-0.470;2023-02-19T05:48:33;102287.36;;;6.74;40.14
39954;BME280;25631;51.516;-0.470;2023-02-19T05:51:12;102287.91;;;7.16;39.97
39954;BME280;25631;51.516;-0.470;2023-02-19T05:53:49;102287.30;;;6.71;40.05
39954;BME280;25631;51.516;-0.470;2023-02-19T05:56:30;102288.56;;;6.82;40.02
39954;BME280;25631;51.516;-0.470;2023-02-19T05:59:14;102288.52;;;6.67;39.91
39954;BME280;25631;51.516;-0.470;2023-02-19T06:01:52;102295.08;;;6.73;39.86
39954;BME280;25631;51.516;-0.470;2023-02-19T06:04:29;102293.47;;;6.75;39.89
39954;BME280;25631;51.516;-0.470;2023-02-19T06:07:06;102296.90;;;6.14;39.82
39954;BME280;25631;51.516;-0.470;2023-02-19T06:09:42;102302.89;;;6.95;39.77
39954;BME280;25631;51.516;-0.470;2023-02-19T06:12:19;102306.67;;;6.69;39.80
39954;BME280;25631;51.516;-0.470;2023-02-19T06:14:55;102311.57;;;6.46;39.86
39954;BME280;25631;51.516;-0.470;2023-02-19T06:17:32;102311.07;;;6.72;39.81
39954;BME280;25631;51.516;-0.470;2023-02-19T06:20:10;102316.90;;;6.58;39.82
39954;BME280;25631;51.516;-0.470;2023-02-19T06:22:49;102321.99;;;6.55;39.81
39954;BME280;25631;51.516;-0.470;2023-02-19T06:25:25;102321.55;;;6.26;39.79
39954;BME280;25631;51.516;-0.470;2023-02-19T06:28:02;102321.43;;;6.69;39.73
39954;BME280;25631;51.516;-0.470;2023-02-19T06:30:38;102331.97;;;6.56;39.76
39954;BME280;25631;51.516;-0.470;2023-02-19T06:33:15;102337.82;;;6.69;39.68
39954;BME280;25631;51.516;-0.470;2023-02-19T06:35:52;102337.02;;;6.42;39.74
39954;BME280;25631;51.516;-0.470;2023-02-19T06:38:29;102345.11;;;6.62;39.72
39954;BME280;25631;51.516;-0.470;2023-02-19T06:41:07;102346.10;;;6.66;39.86
39954;BME280;25631;51.516;-0.470;2023-02-19T06:43:44;102348.95;;;6.64;39.81
39954;BME280;25631;51.516;-0.470;2023-02-19T06:46:21;102347.09;;;6.55;39.93
39954;BME280;25631;51.516;-0.470;2023-02-19T06:48:57;102348.85;;;6.34;39.85
39954;BME280;25631;51.516;-0.470;2023-02-19T06:51:34;102351.11;;;6.43;39.95
39954;BME280;25631;51.516;-0.470;2023-02-19T06:54:10;102351.34;;;6.26;39.89
39954;BME280;25631;51.516;-0.470;2023-02-19T06:56:47;102347.74;;;6.42;39.93
39954;BME280;25631;51.516;-0.470;2023-02-19T06:59:23;102347.11;;;6.27;39.97
39954;BME280;25631;51.516;-0.470;2023-02-19T07:02:00;102349.05;;;6.52;39.88
39954;BME280;25631;51.516;-0.470;2023-02-19T07:04:37;102354.13;;;6.39;39.93
39954;BME280;25631;51.516;-0.470;2023-02-19T07:07:13;102360.65;;;6.46;39.94
39954;BME280;25631;51.516;-0.470;2023-02-19T07:09:50;102357.26;;;6.42;40.02
39954;BME280;25631;51.516;-0.470;2023-02-19T07:12:26;102363.11;;;6.53;40.00
39954;BME280;25631;51.516;-0.470;2023-02-19T07:15:03;102374.95;;;6.17;40.04
39954;BME280;25631;51.516;-0.470;2023-02-19T07:17:40;102383.27;;;6.27;40.12
39954;BME280;25631;51.516;-0.470;2023-02-19T07:20:16;102383.67;;;6.58;40.11
39954;BME280;25631;51.516;-0.470;2023-02-19T07:22:53;102381.17;;;6.34;40.21
39954;BME280;25631;51.516;-0.470;2023-02-19T07:25:29;102397.71;;;6.33;40.13
39954;BME280;25631;51.516;-0.470;2023-02-19T07:28:06;102409.82;;;6.42;40.08
39954;BME280;25631;51.516;-0.470;2023-02-19T07:30:43;102416.52;;;6.15;40.10
39954;BME280;25631;51.516;-0.470;2023-02-19T07:33:19;102414.80;;;6.36;40.27
39954;BME280;25631;51.516;-0.470;2023-02-19T07:35:56;102413.50;;;6.40;40.14
39954;BME280;25631;51.516;-0.470;2023-02-19T07:38:33;102417.14;;;6.29;40.17
39954;BME280;25631;51.516;-0.470;2023-02-19T07:41:10;102422.40;;;6.44;40.12
39954;BME280;25631;51.516;-0.470;2023-02-19T07:43:46;102420.70;;;6.41;40.07
39954;BME280;25631;51.516;-0.470;2023-02-19T07:46:23;102418.56;;;6.37;40.06
39954;BME280;25631;51.516;-0.470;2023-02-19T07:49:00;102422.21;;;6.06;40.11
39954;BME280;25631;51.516;-0.470;2023-02-19T07:51:36;102422.66;;;6.16;40.23
39954;BME280;25631;51.516;-0.470;2023-02-19T07:54:13;102434.27;;;6.32;40.20
39954;BME280;25631;51.516;-0.470;2023-02-19T07:56:50;102435.81;;;6.15;40.28
39954;BME280;25631;51.516;-0.470;2023-02-19T07:59:26;102434.22;;;6.12;40.37
39954;BME280;25631;51.516;-0.470;2023-02-19T08:02:03;102453.34;;;6.25;40.23
39954;BME280;25631;51.516;-0.470;2023-02-19T08:04:39;102456.15;;;6.31;40.33
39954;BME280;25631;51.516;-0.470;2023-02-19T08:07:16;102463.16;;;6.46;40.25
39954;BME280;25631;51.516;-0.470;2023-02-19T08:09:52;102456.04;;;6.36;40.14
39954;BME280;25631;51.516;-0.470;2023-02-19T08:12:29;102458.24;;;6.80;40.01
39954;BME280;25631;51.516;-0.470;2023-02-19T08:15:05;102460.27;;;6.61;39.89
39954;BME280;25631;51.516;-0.470;2023-02-19T08:17:42;102463.10;;;6.59;39.85
39954;BME280;25631;51.516;-0.470;2023-02-19T08:20:19;102474.96;;;6.34;39.92
39954;BME280;25631;51.516;-0.470;2023-02-19T08:22:56;102490.37;;;6.42;39.88
39954;BME280;25631;51.516;-0.470;2023-02-19T08:25:33;102501.93;;;6.43;39.78
39954;BME280;25631;51.516;-0.470;2023-02-19T08:28:10;102519.22;;;6.78;39.56
39954;BME280;25631;51.516;-0.470;2023-02-19T08:30:47;102523.66;;;6.67;39.72
39954;BME280;25631;51.516;-0.470;2023-02-19T08:33:23;102516.50;;;6.64;39.78
39954;BME280;25631;51.516;-0.470;2023-02-19T08:36:02;102520.99;;;6.73;39.58
39954;BME280;25631;51.516;-0.470;2023-02-19T08:38:39;102524.06;;;6.83;39.65
39954;BME280;25631;51.516;-0.470;2023-02-19T08:41:15;102524.34;;;6.66;39.61
39954;BME280;25631;51.516;-0.470;2023-02-19T08:43:52;102519.16;;;6.94;39.50
39954;BME280;25631;51.516;-0.470;2023-02-19T08:46:28;102510.64;;;7.03;39.38
39954;BME280;25631;51.516;-0.470;2023-02-19T08:49:05;102500.63;;;6.82;39.41
39954;BME280;25631;51.516;-0.470;2023-02-19T08:51:41;102504.70;;;7.19;39.35
39954;BME280;25631;51.516;-0.470;2023-02-19T08:54:18;102511.43;;;6.95;39.36
39954;BME280;25631;51.516;-0.470;2023-02-19T08:56:54;102521.68;;;7.02;39.30
39954;BME280;25631;51.516;-0.470;2023-02-19T08:59:31;102522.28;;;7.07;39.16
39954;BME280;25631;51.516;-0.470;2023-02-19T09:02:08;102518.51;;;7.21;39.13
39954;BME280;25631;51.516;-0.470;2023-02-19T09:04:45;102519.67;;;7.33;39.02
39954;BME280;25631;51.516;-0.470;2023-02-19T09:07:21;102524.90;;;7.36;38.73
39954;BME280;25631;51.516;-0.470;2023-02-19T09:09:59;102522.63;;;6.91;38.46
39954;BME280;25631;51.516;-0.470;2023-02-19T09:12:35;102517.93;;;7.26;38.46
39954;BME280;25631;51.516;-0.470;2023-02-19T09:15:12;102515.46;;;7.02;38.64
39954;BME280;25631;51.516;-0.470;2023-02-19T09:17:51;102519.97;;;7.12;38.52
39954;BME280;25631;51.516;-0.470;2023-02-19T09:20:27;102532.83;;;7.18;38.41
39954;BME280;25631;51.516;-0.470;2023-02-19T09:23:04;102533.91;;;7.19;38.37
39954;BME280;25631;51.516;-0.470;2023-02-19T09:25:40;102533.23;;;7.04;38.05
39954;BME280;25631;51.516;-0.470;2023-02-19T09:28:17;102522.41;;;7.05;37.99
39954;BME280;25631;51.516;-0.470;2023-02-19T09:30:54;102534.88;;;7.20;37.97
39954;BME280;25631;51.516;-0.470;2023-02-19T09:33:31;102545.10;;;7.45;37.72
39954;BME280;25631;51.516;-0.470;2023-02-19T09:36:08;102557.85;;;7.55;37.41
39954;BME280;25631;51.516;-0.470;2023-02-19T09:38:45;102563.95;;;7.37;37.32
39954;BME280;25631;51.516;-0.470;2023-02-19T09:41:28;102562.78;;;7.41;37.16
39954;BME280;25631;51.516;-0.470;2023-02-19T09:44:08;102552.71;;;7.56;36.90
39954;BME280;25631;51.516;-0.470;2023-02-19T09:46:47;102559.59;;;7.26;36.74
39954;BME280;25631;51.516;-0.470;2023-02-19T09:49:27;102574.90;;;6.76;36.11
39954;BME280;25631;51.516;-0.470;2023-02-19T09:52:11;102595.62;;;7.44;36.13
39954;BME280;25631;51.516;-0.470;2023-02-19T09:54:49;102604.73;;;7.60;36.05
39954;BME280;25631;51.516;-0.470;2023-02-19T09:57:29;102604.66;;;7.50;35.99
39954;BME280;25631;51.516;-0.470;2023-02-19T10:00:20;102597.59;;;7.47;36.03
39954;BME280;25631;51.516;-0.470;2023-02-19T10:03:02;102591.35;;;7.45;35.77
39954;BME280;25631;51.516;-0.470;2023-02-19T10:05:40;102590.78;;;7.39;35.62
39954;BME280;25631;51.516;-0.470;2023-02-19T10:08:19;102593.87;;;7.70;35.63
39954;BME280;25631;51.516;-0.470;2023-02-19T10:10:56;102585.68;;;7.65;35.71
39954;BME280;25631;51.516;-0.470;2023-02-19T10:13:35;102582.70;;;7.47;35.74
39954;BME280;25631;51.516;-0.470;2023-02-19T10:16:16;102579.90;;;7.76;35.44
39954;BME280;25631;51.516;-0.470;2023-02-19T10:18:54;102588.40;;;7.40;34.56
39954;BME280;25631;51.516;-0.470;2023-02-19T10:21:31;102594.50;;;7.83;34.49
39954;BME280;25631;51.516;-0.470;2023-02-19T10:24:11;102607.31;;;7.86;34.31
39954;BME280;25631;51.516;-0.470;2023-02-19T10:26:50;102604.95;;;7.74;33.88
39954;BME280;25631;51.516;-0.470;2023-02-19T10:29:27;102602.45;;;7.48;34.03
39954;BME280;25631;51.516;-0.470;2023-02-19T10:32:21;102593.49;;;7.72;34.01
39954;BME280;25631;51.516;-0.470;2023-02-19T10:35:15;102595.85;;;7.86;34.25
39954;BME280;25631;51.516;-0.470;2023-02-19T10:37:52;102598.03;;;7.95;33.90
39954;BME280;25631;51.516;-0.470;2023-02-19T10:40:29;102599.99;;;8.22;33.73
39954;BME280;25631;51.516;-0.470;2023-02-19T10:43:05;102599.85;;;8.34;33.62
39954;BME280;25631;51.516;-0.470;2023-02-19T10:45:52;102606.22;;;8.50;33.06
39954;BME280;25631;51.516;-0.470;2023-02-19T10:48:30;102610.94;;;8.44;32.74
39954;BME280;25631;51.516;-0.470;2023-02-19T10:51:10;102603.10;;;8.15;32.10
39954;BME280;25631;51.516;-0.470;2023-02-19T10:53:49;102609.11;;;8.64;32.01
39954;BME280;25631;51.516;-0.470;2023-02-19T10:56:27;102611.09;;;8.81;32.04
39954;BME280;25631;51.516;-0.470;2023-02-19T10:59:36;102614.07;;;8.77;32.03
39954;BME280;25631;51.516;-0.470;2023-02-19T11:02:16;102618.15;;;8.79;31.81
39954;BME280;25631;51.516;-0.470;2023-02-19T11:05:13;102616.35;;;8.82;31.83
39954;BME280;25631;51.516;-0.470;2023-02-19T11:07:52;102622.18;;;8.75;31.58
39954;BME280;25631;51.516;-0.470;2023-02-19T11:10:35;102630.84;;;8.82;31.54
39954;BME280;25631;51.516;-0.470;2023-02-19T11:13:17;102633.80;;;9.08;31.77
39954;BME280;25631;51.516;-0.470;2023-02-19T11:15:56;102630.73;;;8.96;31.73
39954;BME280;25631;51.516;-0.470;2023-02-19T11:18:33;102629.69;;;8.89;31.74
39954;BME280;25631;51.516;-0.470;2023-02-19T11:21:24;102626.48;;;8.78;31.37
39954;BME280;25631;51.516;-0.470;2023-02-19T11:24:01;102628.28;;;9.24;31.37
39954;BME280;25631;51.516;-0.470;2023-02-19T11:26:38;102639.03;;;9.15;31.49
39954;BME280;25631;51.516;-0.470;2023-02-19T11:29:19;102639.97;;;8.88;31.75
39954;BME280;25631;51.516;-0.470;2023-02-19T11:31:58;102638.78;;;8.92;31.70
39954;BME280;25631;51.516;-0.470;2023-02-19T11:35:03;102638.41;;;9.07;31.94
39954;BME280;25631;51.516;-0.470;2023-02-19T11:37:54;102639.56;;;8.61;31.76
39954;BME280;25631;51.516;-0.470;2023-02-19T11:40:43;102636.67;;;8.69;31.84
39954;BME280;25631;51.516;-0.470;2023-02-19T11:43:38;102637.94;;;8.89;32.04
39954;BME280;25631;51.516;-0.470;2023-02-19T11:46:24;102641.31;;;8.91;32.07
39954;BME280;25631;51.516;-0.470;2023-02-19T11:49:18;102634.94;;;9.07;32.05
39954;BME280;25631;51.516;-0.470;2023-02-19T11:52:07;102618.68;;;8.96;32.23
39954;BME280;25631;51.516;-0.470;2023-02-19T11:54:51;102619.31;;;9.35;31.93
39954;BME280;25631;51.516;-0.470;2023-02-19T11:57:39;102623.62;;;9.04;32.13
39954;BME280;25631;51.516;-0.470;2023-02-19T12:00:22;102618.50;;;9.29;31.97
39954;BME280;25631;51.516;-0.470;2023-02-19T12:03:15;102611.72;;;9.29;32.00
39954;BME280;25631;51.516;-0.470;2023-02-19T12:06:09;102615.23;;;9.35;31.93
39954;BME280;25631;51.516;-0.470;2023-02-19T12:09:06;102616.46;;;9.49;31.99
39954;BME280;25631;51.516;-0.470;2023-02-19T12:11:58;102618.78;;;9.79;32.11
39954;BME280;25631;51.516;-0.470;2023-02-19T12:14:55;102606.66;;;9.68;32.13
39954;BME280;25631;51.516;-0.470;2023-02-19T12:17:48;102588.94;;;9.46;31.80
39954;BME280;25631;51.516;-0.470;2023-02-19T12:20:36;102576.66;;;9.81;32.03
39954;BME280;25631;51.516;-0.470;2023-02-19T12:23:37;102588.35;;;9.85;32.15
39954;BME280;25631;51.516;-0.470;2023-02-19T12:26:22;102577.70;;;9.82;32.17
39954;BME280;25631;51.516;-0.470;2023-02-19T12:29:23;102579.40;;;10.01;32.14
39954;BME280;25631;51.516;-0.470;2023-02-19T12:32:25;102565.63;;;10.00;32.06
39954;BME280;25631;51.516;-0.470;2023-02-19T12:35:25;102559.54;;;10.00;32.06
39954;BME280;25631;51.516;-0.470;2023-02-19T12:38:18;102567.73;;;10.28;32.05
39954;BME280;25631;51.516;-0.470;2023-02-19T12:41:06;102568.52;;;10.17;32.16
39954;BME280;25631;51.516;-0.470;2023-02-19T12:43:54;102561.61;;;10.18;32.31
39954;BME280;25631;51.516;-0.470;2023-02-19T12:46:35;102557.09;;;10.43;31.79
39954;BME280;25631;51.516;-0.470;2023-02-19T12:49:20;102562.51;;;10.10;31.98
39954;BME280;25631;51.516;-0.470;2023-02-19T12:52:05;102562.16;;;10.34;32.08
39954;BME280;25631;51.516;-0.470;2023-02-19T12:54:45;102557.71;;;10.28;32.11
39954;BME280;25631;51.516;-0.470;2023-02-19T12:57:24;102553.23;;;10.46;32.28
39954;BME280;25631;51.516;-0.470;2023-02-19T13:00:08;102553.55;;;10.72;32.23
39954;BME280;25631;51.516;-0.470;2023-02-19T13:02:57;102559.83;;;10.84;32.23
39954;BME280;25631;51.516;-0.470;2023-02-19T13:05:42;102554.98;;;10.90;32.18
39954;BME280;25631;51.516;-0.470;2023-02-19T13:08:25;102551.00;;;11.08;32.24
39954;BME280;25631;51.516;-0.470;2023-02-19T13:11:05;102546.60;;;11.05;32.26
39954;BME280;25631;51.516;-0.470;2023-02-19T13:13:46;102543.18;;;11.16;32.04
39954;BME280;25631;51.516;-0.470;2023-02-19T13:16:25;102543.51;;;11.01;32.26
39954;BME280;25631;51.516;-0.470;2023-02-19T13:19:04;102547.14;;;10.99;32.24
39954;BME280;25631;51.516;-0.470;2023-02-19T13:21:41;102543.19;;;10.88;32.11
39954;BME280;25631;51.516;-0.470;2023-02-19T13:24:25;102534.13;;;10.99;31.98
39954;BME280;25631;51.516;-0.470;2023-02-19T13:27:12;102526.52;;;11.09;32.11
39954;BME280;25631;51.516;-0.470;2023-02-19T13:30:04;102532.64;;;11.27;32.31
39954;BME280;25631;51.516;-0.470;2023-02-19T13:32:54;102537.94;;;10.98;32.73
39954;BME280;25631;51.516;-0.470;2023-02-19T13:35:56;102537.25;;;10.85;32.80
39954;BME280;25631;51.516;-0.470;2023-02-19T13:38:38;102531.79;;;10.91;32.80
39954;BME280;25631;51.516;-0.470;2023-02-19T13:41:19;102533.05;;;11.09;32.77
39954;BME280;25631;51.516;-0.470;2023-02-19T13:43:59;102527.56;;;11.24;32.48
39954;BME280;25631;51.516;-0.470;2023-02-19T13:46:38;102530.76;;;11.52;32.68
39954;BME280;25631;51.516;-0.470;2023-02-19T13:49:40;102534.17;;;11.61;32.42
39954;BME280;25631;51.516;-0.470;2023-02-19T13:52:36;102535.01;;;11.31;32.24
39954;BME280;25631;51.516;-0.470;2023-02-19T13:55:51;102528.61;;;11.50;31.90